sensor_id;sensor_type;location;lat;lon;timestamp;P1;durP1;ratioP1;P2;durP2;ratioP2
56373;SDS011;58212;47.034;7.376;2023-04-30T00:01:34;7.57;;;6.88;;
56373;SDS011;58212;47.034;7.376;2023-04-30T00:04:03;6.53;;;5.93;;
56373;SDS011;58212;47.034;7.376;2023-04-30T00:06:30;7.90;;;6.07;;
56373;SDS011;58212;47.034;7.376;2023-04-30T00:08:57;6.35;;;5.85;;
56373;SDS011;58212;47.034;7.376;2023-04-30T00:11:49;6.65;;;6.07;;
56373;SDS011;58212;47.034;7.376;2023-04-30T00:14:20;6.70;;;6.10;;
56373;SDS011;58212;47.034;7.376;2023-04-30T00:16:47;7.70;;;7.00;;
56373;SDS011;58212;47.034;7.376;2023-04-30T00:19:42;6.95;;;6.32;;
56373;SDS011;58212;47.034;7.376;2023-04-30T00:22:10;7.28;;;6.57;;
56373;SDS011;58212;47.034;7.376;2023-04-30T00:24:36;7.15;;;6.47;;
56373;SDS011;58212;47.034;7.376;2023-04-30T00:27:07;8.30;;;6.68;;
56373;SDS011;58212;47.034;7.376;2023-04-30T00:29:34;6.93;;;6.32;;
56373;SDS011;58212;47.034;7.376;2023-04-30T00:32:01;7.80;;;6.95;;
56373;SDS011;58212;47.034;7.376;2023-04-30T00:34:29;7.07;;;6.47;;
56373;SDS011;58212;47.034;7.376;2023-04-30T00:36:58;7.57;;;6.90;;
56373;SDS011;58212;47.034;7.376;2023-04-30T00:39:25;7.80;;;7.10;;
56373;SDS011;58212;47.034;7.376;2023-04-30T00:41:53;7.60;;;6.57;;
56373;SDS011;58212;47.034;7.376;2023-04-30T00:44:24;10.18;;;6.90;;
56373;SDS011;58212;47.034;7.376;2023-04-30T00:46:50;9.43;;;6.97;;
56373;SDS011;58212;47.034;7.376;2023-04-30T00:49:18;7.35;;;6.63;;
56373;SDS011;58212;47.034;7.376;2023-04-30T00:51:45;7.28;;;6.57;;
56373;SDS011;58212;47.034;7.376;2023-04-30T00:54:13;6.97;;;6.25;;
56373;SDS011;58212;47.034;7.376;2023-04-30T00:56:41;7.28;;;6.57;;
56373;SDS011;58212;47.034;7.376;2023-04-30T00:59:09;7.70;;;6.90;;
56373;SDS011;58212;47.034;7.376;2023-04-30T01:01:37;7.55;;;6.32;;
56373;SDS011;58212;47.034;7.376;2023-04-30T01:04:08;7.13;;;6.53;;
56373;SDS011;58212;47.034;7.376;2023-04-30T01:06:35;7.13;;;6.53;;
56373;SDS011;58212;47.034;7.376;2023-04-30T01:09:04;6.55;;;5.90;;
56373;SDS011;58212;47.034;7.376;2023-04-30T01:11:35;7.30;;;6.55;;
56373;SDS011;58212;47.034;7.376;2023-04-30T01:14:09;6.55;;;5.95;;
56373;SDS011;58212;47.034;7.376;2023-04-30T01:17:07;7.38;;;6.68;;
56373;SDS011;58212;47.034;7.376;2023-04-30T01:19:44;7.03;;;6.43;;
56373;SDS011;58212;47.034;7.376;2023-04-30T01:22:13;6.35;;;5.82;;
56373;SDS011;58212;47.034;7.376;2023-04-30T01:25:00;6.97;;;6.38;;
56373;SDS011;58212;47.034;7.376;2023-04-30T01:27:58;6.72;;;6.07;;
56373;SDS011;58212;47.034;7.376;2023-04-30T01:30:58;7.18;;;6.47;;
56373;SDS011;58212;47.034;7.376;2023-04-30T01:33:25;7.45;;;6.70;;
56373;SDS011;58212;47.034;7.376;2023-04-30T01:36:04;8.40;;;6.68;;
56373;SDS011;58212;47.034;7.376;2023-04-30T01:38:54;6.88;;;6.18;;
56373;SDS011;58212;47.034;7.376;2023-04-30T01:41:31;7.47;;;6.88;;
56373;SDS011;58212;47.034;7.376;2023-04-30T01:44:19;7.63;;;7.00;;
56373;SDS011;58212;47.034;7.376;2023-04-30T01:47:01;8.38;;;6.13;;
56373;SDS011;58212;47.034;7.376;2023-04-30T01:49:36;9.38;;;6.97;;
56373;SDS011;58212;47.034;7.376;2023-04-30T01:52:17;8.80;;;7.28;;
56373;SDS011;58212;47.034;7.376;2023-04-30T01:54:50;7.22;;;6.63;;
56373;SDS011;58212;47.034;7.376;2023-04-30T01:57:25;7.45;;;6.78;;
56373;SDS011;58212;47.034;7.376;2023-04-30T01:59:58;7.88;;;7.07;;
56373;SDS011;58212;47.034;7.376;2023-04-30T02:02:26;8.48;;;7.57;;
56373;SDS011;58212;47.034;7.376;2023-04-30T02:04:53;7.90;;;7.20;;
56373;SDS011;58212;47.034;7.376;2023-04-30T02:07:25;7.60;;;7.00;;
56373;SDS011;58212;47.034;7.376;2023-04-30T02:10:03;7.97;;;7.28;;
56373;SDS011;58212;47.034;7.376;2023-04-30T02:12:31;8.00;;;7.20;;
56373;SDS011;58212;47.034;7.376;2023-04-30T02:14:59;7.97;;;7.15;;
56373;SDS011;58212;47.034;7.376;2023-04-30T02:17:27;8.55;;;7.75;;
56373;SDS011;58212;47.034;7.376;2023-04-30T02:19:55;9.07;;;7.80;;
56373;SDS011;58212;47.034;7.376;2023-04-30T02:22:21;8.63;;;7.47;;
56373;SDS011;58212;47.034;7.376;2023-04-30T02:24:49;8.50;;;7.78;;
56373;SDS011;58212;47.034;7.376;2023-04-30T02:27:18;9.32;;;8.45;;
56373;SDS011;58212;47.034;7.376;2023-04-30T02:29:46;8.88;;;8.00;;
56373;SDS011;58212;47.034;7.376;2023-04-30T02:32:14;8.65;;;7.85;;
56373;SDS011;58212;47.034;7.376;2023-04-30T02:34:43;8.40;;;7.50;;
56373;SDS011;58212;47.034;7.376;2023-04-30T02:37:10;8.85;;;7.95;;
56373;SDS011;58212;47.034;7.376;2023-04-30T02:39:41;9.15;;;8.32;;
56373;SDS011;58212;47.034;7.376;2023-04-30T02:42:08;8.55;;;7.45;;
56373;SDS011;58212;47.034;7.376;2023-04-30T02:44:35;8.55;;;7.80;;
56373;SDS011;58212;47.034;7.376;2023-04-30T02:47:02;8.63;;;7.80;;
56373;SDS011;58212;47.034;7.376;2023-04-30T02:49:32;9.20;;;8.30;;
56373;SDS011;58212;47.034;7.376;2023-04-30T02:51:59;8.90;;;7.80;;
56373;SDS011;58212;47.034;7.376;2023-04-30T02:54:27;8.13;;;7.32;;
56373;SDS011;58212;47.034;7.376;2023-04-30T02:56:56;9.15;;;8.25;;
56373;SDS011;58212;47.034;7.376;2023-04-30T02:59:23;8.90;;;8.10;;
56373;SDS011;58212;47.034;7.376;2023-04-30T03:01:50;8.75;;;7.95;;
56373;SDS011;58212;47.034;7.376;2023-04-30T03:04:19;9.48;;;8.57;;
56373;SDS011;58212;47.034;7.376;2023-04-30T03:06:48;9.75;;;8.75;;
56373;SDS011;58212;47.034;7.376;2023-04-30T03:09:18;8.82;;;8.02;;
56373;SDS011;58212;47.034;7.376;2023-04-30T03:11:44;8.65;;;7.80;;
56373;SDS011;58212;47.034;7.376;2023-04-30T03:14:14;9.27;;;8.40;;
56373;SDS011;58212;47.034;7.376;2023-04-30T03:16:41;9.38;;;8.10;;
56373;SDS011;58212;47.034;7.376;2023-04-30T03:19:08;8.40;;;7.68;;
56373;SDS011;58212;47.034;7.376;2023-04-30T03:21:36;8.85;;;7.97;;
56373;SDS011;58212;47.034;7.376;2023-04-30T03:24:04;7.10;;;6.50;;
56373;SDS011;58212;47.034;7.376;2023-04-30T03:26:32;8.52;;;7.72;;
56373;SDS011;58212;47.034;7.376;2023-04-30T03:28:59;8.68;;;7.88;;
56373;SDS011;58212;47.034;7.376;2023-04-30T03:31:26;7.88;;;6.95;;
56373;SDS011;58212;47.034;7.376;2023-04-30T03:33:54;9.73;;;8.73;;
56373;SDS011;58212;47.034;7.376;2023-04-30T03:36:25;9.20;;;8.32;;
56373;SDS011;58212;47.034;7.376;2023-04-30T03:38:52;8.07;;;7.28;;
56373;SDS011;58212;47.034;7.376;2023-04-30T03:41:21;9.38;;;8.48;;
56373;SDS011;58212;47.034;7.376;2023-04-30T03:43:48;9.45;;;8.57;;
56373;SDS011;58212;47.034;7.376;2023-04-30T03:46:15;9.52;;;8.65;;
56373;SDS011;58212;47.034;7.376;2023-04-30T03:48:42;9.43;;;8.52;;
56373;SDS011;58212;47.034;7.376;2023-04-30T03:51:09;9.25;;;8.35;;
56373;SDS011;58212;47.034;7.376;2023-04-30T03:53:36;8.85;;;8.00;;
56373;SDS011;58212;47.034;7.376;2023-04-30T03:56:04;9.35;;;8.45;;
56373;SDS011;58212;47.034;7.376;2023-04-30T03:58:33;9.65;;;8.73;;
56373;SDS011;58212;47.034;7.376;2023-04-30T04:01:00;9.00;;;8.18;;
56373;SDS011;58212;47.034;7.376;2023-04-30T04:03:28;9.75;;;8.82;;
56373;SDS011;58212;47.034;7.376;2023-04-30T04:05:56;8.70;;;7.82;;
56373;SDS011;58212;47.034;7.376;2023-04-30T04:08:25;10.20;;;9.15;;
56373;SDS011;58212;47.034;7.376;2023-04-30T04:10:53;9.60;;;8.80;;
56373;SDS011;58212;47.034;7.376;2023-04-30T04:13:21;9.15;;;8.25;;
56373;SDS011;58212;47.034;7.376;2023-04-30T04:15:50;9.80;;;8.90;;
56373;SDS011;58212;47.034;7.376;2023-04-30T04:18:17;10.48;;;9.48;;
56373;SDS011;58212;47.034;7.376;2023-04-30T04:20:44;10.20;;;8.95;;
56373;SDS011;58212;47.034;7.376;2023-04-30T04:23:11;9.75;;;8.52;;
56373;SDS011;58212;47.034;7.376;2023-04-30T04:25:37;9.55;;;8.65;;
56373;SDS011;58212;47.034;7.376;2023-04-30T04:28:05;10.85;;;8.90;;
56373;SDS011;58212;47.034;7.376;2023-04-30T04:30:32;9.25;;;8.15;;
56373;SDS011;58212;47.034;7.376;2023-04-30T04:33:02;10.02;;;9.02;;
56373;SDS011;58212;47.034;7.376;2023-04-30T04:35:30;9.80;;;8.80;;
56373;SDS011;58212;47.034;7.376;2023-04-30T04:37:57;9.35;;;8.45;;
56373;SDS011;58212;47.034;7.376;2023-04-30T04:40:24;9.60;;;8.60;;
56373;SDS011;58212;47.034;7.376;2023-04-30T04:42:51;9.82;;;8.93;;
56373;SDS011;58212;47.034;7.376;2023-04-30T04:45:19;10.13;;;9.05;;
56373;SDS011;58212;47.034;7.376;2023-04-30T04:47:48;9.80;;;8.77;;
56373;SDS011;58212;47.034;7.376;2023-04-30T04:50:17;9.98;;;9.07;;
56373;SDS011;58212;47.034;7.376;2023-04-30T04:52:45;9.38;;;8.48;;
56373;SDS011;58212;47.034;7.376;2023-04-30T04:55:13;11.13;;;9.75;;
56373;SDS011;58212;47.034;7.376;2023-04-30T04:57:40;9.93;;;8.93;;
56373;SDS011;58212;47.034;7.376;2023-04-30T05:00:07;9.93;;;8.93;;
56373;SDS011;58212;47.034;7.376;2023-04-30T05:02:36;10.55;;;9.45;;
56373;SDS011;58212;47.034;7.376;2023-04-30T05:05:03;9.85;;;8.85;;
56373;SDS011;58212;47.034;7.376;2023-04-30T05:07:33;10.57;;;8.95;;
56373;SDS011;58212;47.034;7.376;2023-04-30T05:10:01;9.52;;;8.63;;
56373;SDS011;58212;47.034;7.376;2023-04-30T05:12:29;9.45;;;8.55;;
56373;SDS011;58212;47.034;7.376;2023-04-30T05:14:56;10.50;;;9.25;;
56373;SDS011;58212;47.034;7.376;2023-04-30T05:17:23;9.57;;;8.68;;
56373;SDS011;58212;47.034;7.376;2023-04-30T05:19:50;9.32;;;7.97;;
56373;SDS011;58212;47.034;7.376;2023-04-30T05:22:18;9.25;;;8.35;;
56373;SDS011;58212;47.034;7.376;2023-04-30T05:24:47;9.23;;;8.27;;
56373;SDS011;58212;47.034;7.376;2023-04-30T05:27:16;9.32;;;8.43;;
56373;SDS011;58212;47.034;7.376;2023-04-30T05:29:45;10.02;;;9.02;;
56373;SDS011;58212;47.034;7.376;2023-04-30T05:32:12;10.35;;;9.35;;
56373;SDS011;58212;47.034;7.376;2023-04-30T05:34:41;10.10;;;8.80;;
56373;SDS011;58212;47.034;7.376;2023-04-30T05:37:08;9.35;;;8.45;;
56373;SDS011;58212;47.034;7.376;2023-04-30T05:42:30;10.30;;;9.30;;
56373;SDS011;58212;47.034;7.376;2023-04-30T05:44:57;10.48;;;8.68;;
56373;SDS011;58212;47.034;7.376;2023-04-30T05:47:25;8.95;;;8.13;;
56373;SDS011;58212;47.034;7.376;2023-04-30T05:49:53;11.18;;;9.13;;
56373;SDS011;58212;47.034;7.376;2023-04-30T05:52:23;9.30;;;8.40;;
56373;SDS011;58212;47.034;7.376;2023-04-30T05:54:49;9.82;;;8.85;;
56373;SDS011;58212;47.034;7.376;2023-04-30T05:57:18;9.55;;;8.65;;
56373;SDS011;58212;47.034;7.376;2023-04-30T05:59:47;9.52;;;8.63;;
56373;SDS011;58212;47.034;7.376;2023-04-30T06:02:14;9.95;;;8.70;;
56373;SDS011;58212;47.034;7.376;2023-04-30T06:04:41;9.85;;;8.88;;
56373;SDS011;58212;47.034;7.376;2023-04-30T06:07:10;10.00;;;8.77;;
56373;SDS011;58212;47.034;7.376;2023-04-30T06:09:37;9.30;;;8.32;;
56373;SDS011;58212;47.034;7.376;2023-04-30T06:12:04;9.30;;;8.38;;
56373;SDS011;58212;47.034;7.376;2023-04-30T06:14:58;9.43;;;8.52;;
56373;SDS011;58212;47.034;7.376;2023-04-30T06:17:26;10.23;;;9.00;;
56373;SDS011;58212;47.034;7.376;2023-04-30T06:19:53;8.80;;;7.90;;
56373;SDS011;58212;47.034;7.376;2023-04-30T06:22:20;9.80;;;8.85;;
56373;SDS011;58212;47.034;7.376;2023-04-30T06:24:47;9.10;;;8.20;;
56373;SDS011;58212;47.034;7.376;2023-04-30T06:27:17;10.52;;;9.48;;
56373;SDS011;58212;47.034;7.376;2023-04-30T06:29:43;9.27;;;8.38;;
56373;SDS011;58212;47.034;7.376;2023-04-30T06:32:12;9.70;;;8.70;;
56373;SDS011;58212;47.034;7.376;2023-04-30T06:34:40;10.57;;;9.45;;
56373;SDS011;58212;47.034;7.376;2023-04-30T06:37:06;9.13;;;8.32;;
56373;SDS011;58212;47.034;7.376;2023-04-30T06:39:33;9.73;;;8.15;;
56373;SDS011;58212;47.034;7.376;2023-04-30T06:42:00;9.85;;;8.85;;
56373;SDS011;58212;47.034;7.376;2023-04-30T06:44:29;9.23;;;8.25;;
56373;SDS011;58212;47.034;7.376;2023-04-30T06:46:57;9.35;;;8.45;;
56373;SDS011;58212;47.034;7.376;2023-04-30T06:49:25;10.07;;;8.10;;
56373;SDS011;58212;47.034;7.376;2023-04-30T06:51:52;11.95;;;9.80;;
56373;SDS011;58212;47.034;7.376;2023-04-30T06:54:20;9.07;;;8.18;;
56373;SDS011;58212;47.034;7.376;2023-04-30T06:57:13;10.48;;;9.38;;
56373;SDS011;58212;47.034;7.376;2023-04-30T06:59:40;9.63;;;8.82;;
56373;SDS011;58212;47.034;7.376;2023-04-30T07:02:12;9.27;;;8.38;;
56373;SDS011;58212;47.034;7.376;2023-04-30T07:04:40;10.38;;;8.88;;
56373;SDS011;58212;47.034;7.376;2023-04-30T07:07:09;9.13;;;8.23;;
56373;SDS011;58212;47.034;7.376;2023-04-30T07:09:36;9.63;;;8.60;;
56373;SDS011;58212;47.034;7.376;2023-04-30T07:12:04;9.75;;;8.77;;
56373;SDS011;58212;47.034;7.376;2023-04-30T07:14:55;9.80;;;8.90;;
56373;SDS011;58212;47.034;7.376;2023-04-30T07:17:22;11.07;;;8.45;;
56373;SDS011;58212;47.034;7.376;2023-04-30T07:19:51;9.40;;;8.50;;
56373;SDS011;58212;47.034;7.376;2023-04-30T07:22:18;9.48;;;8.57;;
56373;SDS011;58212;47.034;7.376;2023-04-30T07:24:45;9.45;;;8.45;;
56373;SDS011;58212;47.034;7.376;2023-04-30T07:27:12;9.68;;;8.75;;
56373;SDS011;58212;47.034;7.376;2023-04-30T07:29:38;9.65;;;8.70;;
56373;SDS011;58212;47.034;7.376;2023-04-30T07:32:06;11.07;;;9.80;;
56373;SDS011;58212;47.034;7.376;2023-04-30T07:34:33;11.38;;;9.25;;
56373;SDS011;58212;47.034;7.376;2023-04-30T07:37:01;9.70;;;8.70;;
56373;SDS011;58212;47.034;7.376;2023-04-30T07:39:29;10.25;;;8.75;;
56373;SDS011;58212;47.034;7.376;2023-04-30T07:41:56;11.02;;;9.93;;
56373;SDS011;58212;47.034;7.376;2023-04-30T07:44:24;10.93;;;9.20;;
56373;SDS011;58212;47.034;7.376;2023-04-30T07:46:51;9.80;;;8.80;;
56373;SDS011;58212;47.034;7.376;2023-04-30T07:49:18;8.82;;;8.02;;
56373;SDS011;58212;47.034;7.376;2023-04-30T07:51:48;10.13;;;8.48;;
56373;SDS011;58212;47.034;7.376;2023-04-30T07:54:18;9.88;;;8.90;;
56373;SDS011;58212;47.034;7.376;2023-04-30T07:56:46;9.27;;;8.38;;
56373;SDS011;58212;47.034;7.376;2023-04-30T07:59:13;9.18;;;8.27;;
56373;SDS011;58212;47.034;7.376;2023-04-30T08:01:42;10.07;;;8.27;;
56373;SDS011;58212;47.034;7.376;2023-04-30T08:04:08;9.52;;;8.07;;
56373;SDS011;58212;47.034;7.376;2023-04-30T08:06:38;9.73;;;8.73;;
56373;SDS011;58212;47.034;7.376;2023-04-30T08:09:06;9.57;;;8.68;;
56373;SDS011;58212;47.034;7.376;2023-04-30T08:11:34;8.48;;;7.63;;
56373;SDS011;58212;47.034;7.376;2023-04-30T08:14:03;8.32;;;7.43;;
56373;SDS011;58212;47.034;7.376;2023-04-30T08:16:31;9.98;;;8.85;;
56373;SDS011;58212;47.034;7.376;2023-04-30T08:18:59;9.02;;;8.13;;
56373;SDS011;58212;47.034;7.376;2023-04-30T08:21:26;7.88;;;7.18;;
56373;SDS011;58212;47.034;7.376;2023-04-30T08:23:54;8.45;;;7.68;;
56373;SDS011;58212;47.034;7.376;2023-04-30T08:26:22;8.85;;;7.97;;
56373;SDS011;58212;47.034;7.376;2023-04-30T08:28:53;10.13;;;8.18;;
56373;SDS011;58212;47.034;7.376;2023-04-30T08:31:20;8.30;;;7.50;;
56373;SDS011;58212;47.034;7.376;2023-04-30T08:33:49;8.57;;;7.68;;
56373;SDS011;58212;47.034;7.376;2023-04-30T08:36:16;8.95;;;8.05;;
56373;SDS011;58212;47.034;7.376;2023-04-30T08:38:44;8.40;;;7.63;;
56373;SDS011;58212;47.034;7.376;2023-04-30T08:41:11;8.52;;;7.63;;
56373;SDS011;58212;47.034;7.376;2023-04-30T08:43:40;8.23;;;7.43;;
56373;SDS011;58212;47.034;7.376;2023-04-30T08:46:09;10.43;;;8.98;;
56373;SDS011;58212;47.034;7.376;2023-04-30T08:48:38;7.85;;;7.07;;
56373;SDS011;58212;47.034;7.376;2023-04-30T08:51:06;8.15;;;7.45;;
56373;SDS011;58212;47.034;7.376;2023-04-30T08:53:33;7.90;;;7.13;;
56373;SDS011;58212;47.034;7.376;2023-04-30T08:56:02;9.95;;;7.75;;
56373;SDS011;58212;47.034;7.376;2023-04-30T08:58:30;8.05;;;7.13;;
56373;SDS011;58212;47.034;7.376;2023-04-30T09:00:56;8.13;;;7.32;;
56373;SDS011;58212;47.034;7.376;2023-04-30T09:03:26;8.07;;;7.05;;
56373;SDS011;58212;47.034;7.376;2023-04-30T09:05:53;7.75;;;7.05;;
56373;SDS011;58212;47.034;7.376;2023-04-30T09:08:40;7.55;;;6.85;;
56373;SDS011;58212;47.034;7.376;2023-04-30T09:11:24;8.05;;;7.25;;
56373;SDS011;58212;47.034;7.376;2023-04-30T09:13:52;9.05;;;8.15;;
56373;SDS011;58212;47.034;7.376;2023-04-30T09:16:21;7.78;;;7.07;;
56373;SDS011;58212;47.034;7.376;2023-04-30T09:18:50;7.45;;;6.72;;
56373;SDS011;58212;47.034;7.376;2023-04-30T09:21:30;7.45;;;6.65;;
56373;SDS011;58212;47.034;7.376;2023-04-30T09:24:23;7.28;;;6.68;;
56373;SDS011;58212;47.034;7.376;2023-04-30T09:27:15;7.68;;;6.88;;
56373;SDS011;58212;47.034;7.376;2023-04-30T09:30:08;6.82;;;5.93;;
56373;SDS011;58212;47.034;7.376;2023-04-30T09:32:55;7.60;;;6.82;;
56373;SDS011;58212;47.034;7.376;2023-04-30T09:35:30;6.30;;;5.47;;
56373;SDS011;58212;47.034;7.376;2023-04-30T09:37:58;6.38;;;5.78;;
56373;SDS011;58212;47.034;7.376;2023-04-30T09:40:33;6.53;;;5.93;;
56373;SDS011;58212;47.034;7.376;2023-04-30T09:43:26;6.97;;;6.25;;
56373;SDS011;58212;47.034;7.376;2023-04-30T09:46:18;7.88;;;6.60;;
56373;SDS011;58212;47.034;7.376;2023-04-30T09:48:46;6.57;;;5.97;;
56373;SDS011;58212;47.034;7.376;2023-04-30T09:51:24;6.88;;;6.28;;
56373;SDS011;58212;47.034;7.376;2023-04-30T09:53:52;7.07;;;6.47;;
56373;SDS011;58212;47.034;7.376;2023-04-30T09:56:20;7.75;;;7.15;;
56373;SDS011;58212;47.034;7.376;2023-04-30T09:58:49;7.60;;;6.90;;
56373;SDS011;58212;47.034;7.376;2023-04-30T10:01:17;7.40;;;6.55;;
56373;SDS011;58212;47.034;7.376;2023-04-30T10:03:45;7.18;;;6.47;;
56373;SDS011;58212;47.034;7.376;2023-04-30T10:06:17;6.80;;;5.75;;
56373;SDS011;58212;47.034;7.376;2023-04-30T10:08:50;6.70;;;6.10;;
56373;SDS011;58212;47.034;7.376;2023-04-30T10:11:22;7.25;;;6.60;;
56373;SDS011;58212;47.034;7.376;2023-04-30T10:13:54;6.05;;;5.55;;
56373;SDS011;58212;47.034;7.376;2023-04-30T10:16:53;6.75;;;6.15;;
56373;SDS011;58212;47.034;7.376;2023-04-30T10:19:24;6.72;;;5.63;;
56373;SDS011;58212;47.034;7.376;2023-04-30T10:21:57;6.38;;;5.78;;
56373;SDS011;58212;47.034;7.376;2023-04-30T10:24:26;7.18;;;6.47;;
56373;SDS011;58212;47.034;7.376;2023-04-30T10:26:53;6.93;;;5.93;;
56373;SDS011;58212;47.034;7.376;2023-04-30T10:29:21;5.85;;;5.32;;
56373;SDS011;58212;47.034;7.376;2023-04-30T10:31:48;6.97;;;6.38;;
56373;SDS011;58212;47.034;7.376;2023-04-30T10:34:20;5.35;;;4.95;;
56373;SDS011;58212;47.034;7.376;2023-04-30T10:36:53;5.82;;;5.32;;
56373;SDS011;58212;47.034;7.376;2023-04-30T10:39:28;6.15;;;5.65;;
56373;SDS011;58212;47.034;7.376;2023-04-30T10:42:00;6.18;;;5.68;;
56373;SDS011;58212;47.034;7.376;2023-04-30T10:44:29;6.05;;;5.55;;
56373;SDS011;58212;47.034;7.376;2023-04-30T10:46:58;5.93;;;5.43;;
56373;SDS011;58212;47.034;7.376;2023-04-30T10:49:26;5.75;;;5.25;;
56373;SDS011;58212;47.034;7.376;2023-04-30T10:51:53;5.50;;;5.00;;
56373;SDS011;58212;47.034;7.376;2023-04-30T10:54:23;6.18;;;5.60;;
56373;SDS011;58212;47.034;7.376;2023-04-30T10:56:53;5.63;;;5.10;;
56373;SDS011;58212;47.034;7.376;2023-04-30T10:59:34;6.32;;;5.80;;
56373;SDS011;58212;47.034;7.376;2023-04-30T11:02:01;6.07;;;5.10;;
56373;SDS011;58212;47.034;7.376;2023-04-30T11:04:29;6.05;;;5.55;;
56373;SDS011;58212;47.034;7.376;2023-04-30T11:07:06;6.00;;;5.50;;
56373;SDS011;58212;47.034;7.376;2023-04-30T11:09:36;5.65;;;5.15;;
56373;SDS011;58212;47.034;7.376;2023-04-30T11:12:10;6.33;;;5.73;;
56373;SDS011;58212;47.034;7.376;2023-04-30T11:14:40;6.13;;;5.53;;
56373;SDS011;58212;47.034;7.376;2023-04-30T11:17:09;6.00;;;5.40;;
56373;SDS011;58212;47.034;7.376;2023-04-30T11:19:41;6.10;;;5.20;;
56373;SDS011;58212;47.034;7.376;2023-04-30T11:22:20;6.57;;;5.68;;
56373;SDS011;58212;47.034;7.376;2023-04-30T11:24:52;6.30;;;5.70;;
56373;SDS011;58212;47.034;7.376;2023-04-30T11:27:23;6.22;;;5.72;;
56373;SDS011;58212;47.034;7.376;2023-04-30T11:29:52;9.20;;;8.40;;
56373;SDS011;58212;47.034;7.376;2023-04-30T11:32:20;5.95;;;5.47;;
56373;SDS011;58212;47.034;7.376;2023-04-30T11:34:48;5.60;;;5.20;;
56373;SDS011;58212;47.034;7.376;2023-04-30T11:37:17;6.30;;;5.38;;
56373;SDS011;58212;47.034;7.376;2023-04-30T11:39:50;5.88;;;5.38;;
56373;SDS011;58212;47.034;7.376;2023-04-30T11:42:17;5.85;;;5.35;;
56373;SDS011;58212;47.034;7.376;2023-04-30T11:44:46;5.57;;;4.93;;
56373;SDS011;58212;47.034;7.376;2023-04-30T11:47:14;5.80;;;5.30;;
56373;SDS011;58212;47.034;7.376;2023-04-30T11:49:41;5.20;;;4.80;;
56373;SDS011;58212;47.034;7.376;2023-04-30T11:52:08;5.80;;;5.30;;
56373;SDS011;58212;47.034;7.376;2023-04-30T11:54:38;5.70;;;5.13;;
56373;SDS011;58212;47.034;7.376;2023-04-30T11:57:06;5.65;;;5.25;;
56373;SDS011;58212;47.034;7.376;2023-04-30T11:59:38;6.00;;;5.47;;
56373;SDS011;58212;47.034;7.376;2023-04-30T12:02:09;6.82;;;5.13;;
56373;SDS011;58212;47.034;7.376;2023-04-30T12:04:44;5.95;;;5.30;;
56373;SDS011;58212;47.034;7.376;2023-04-30T12:07:12;5.45;;;5.05;;
56373;SDS011;58212;47.034;7.376;2023-04-30T12:09:52;5.07;;;4.68;;
56373;SDS011;58212;47.034;7.376;2023-04-30T12:12:27;6.00;;;5.40;;
56373;SDS011;58212;47.034;7.376;2023-04-30T12:14:55;5.55;;;5.05;;
56373;SDS011;58212;47.034;7.376;2023-04-30T12:17:48;5.78;;;5.18;;
56373;SDS011;58212;47.034;7.376;2023-04-30T12:20:15;5.38;;;4.97;;
56373;SDS011;58212;47.034;7.376;2023-04-30T12:22:43;5.57;;;5.07;;
56373;SDS011;58212;47.034;7.376;2023-04-30T12:25:11;5.50;;;5.10;;
56373;SDS011;58212;47.034;7.376;2023-04-30T12:27:40;5.13;;;4.72;;
56373;SDS011;58212;47.034;7.376;2023-04-30T12:30:08;5.38;;;4.88;;
56373;SDS011;58212;47.034;7.376;2023-04-30T12:32:37;5.50;;;5.10;;
56373;SDS011;58212;47.034;7.376;2023-04-30T12:35:08;5.75;;;5.28;;
56373;SDS011;58212;47.034;7.376;2023-04-30T12:37:41;6.13;;;5.53;;
56373;SDS011;58212;47.034;7.376;2023-04-30T12:40:09;5.88;;;5.07;;
56373;SDS011;58212;47.034;7.376;2023-04-30T12:42:36;5.53;;;5.13;;
56373;SDS011;58212;47.034;7.376;2023-04-30T12:45:04;6.22;;;5.10;;
56373;SDS011;58212;47.034;7.376;2023-04-30T12:47:36;5.88;;;5.38;;
56373;SDS011;58212;47.034;7.376;2023-04-30T12:50:06;6.05;;;5.60;;
56373;SDS011;58212;47.034;7.376;2023-04-30T12:52:37;5.82;;;5.32;;
56373;SDS011;58212;47.034;7.376;2023-04-30T12:55:13;5.18;;;4.78;;
56373;SDS011;58212;47.034;7.376;2023-04-30T13:00:43;5.97;;;5.47;;
56373;SDS011;58212;47.034;7.376;2023-04-30T13:03:12;6.05;;;5.55;;
56373;SDS011;58212;47.034;7.376;2023-04-30T13:05:44;5.93;;;5.43;;
56373;SDS011;58212;47.034;7.376;2023-04-30T13:08:13;5.72;;;5.22;;
56373;SDS011;58212;47.034;7.376;2023-04-30T13:10:44;5.80;;;5.30;;
56373;SDS011;58212;47.034;7.376;2023-04-30T13:13:14;5.25;;;4.85;;
56373;SDS011;58212;47.034;7.376;2023-04-30T13:15:42;5.82;;;5.32;;
56373;SDS011;58212;47.034;7.376;2023-04-30T13:18:09;5.90;;;5.40;;
56373;SDS011;58212;47.034;7.376;2023-04-30T13:20:36;5.13;;;4.72;;
56373;SDS011;58212;47.034;7.376;2023-04-30T13:23:06;5.75;;;5.25;;
56373;SDS011;58212;47.034;7.376;2023-04-30T13:25:33;5.65;;;5.15;;
56373;SDS011;58212;47.034;7.376;2023-04-30T13:28:01;5.32;;;4.82;;
56373;SDS011;58212;47.034;7.376;2023-04-30T13:30:28;5.47;;;5.07;;
56373;SDS011;58212;47.034;7.376;2023-04-30T13:32:55;5.72;;;5.22;;
56373;SDS011;58212;47.034;7.376;2023-04-30T13:35:23;5.28;;;4.88;;
56373;SDS011;58212;47.034;7.376;2023-04-30T13:37:50;7.82;;;5.68;;
56373;SDS011;58212;47.034;7.376;2023-04-30T13:40:19;5.97;;;5.47;;
56373;SDS011;58212;47.034;7.376;2023-04-30T13:43:11;6.88;;;6.28;;
56373;SDS011;58212;47.034;7.376;2023-04-30T13:45:38;7.70;;;7.00;;
56373;SDS011;58212;47.034;7.376;2023-04-30T13:48:06;5.97;;;5.47;;
56373;SDS011;58212;47.034;7.376;2023-04-30T13:50:33;5.13;;;4.72;;
56373;SDS011;58212;47.034;7.376;2023-04-30T13:53:00;5.38;;;4.95;;
56373;SDS011;58212;47.034;7.376;2023-04-30T13:55:29;5.22;;;4.82;;
56373;SDS011;58212;47.034;7.376;2023-04-30T13:57:58;5.13;;;4.72;;
56373;SDS011;58212;47.034;7.376;2023-04-30T14:00:28;5.30;;;4.90;;
56373;SDS011;58212;47.034;7.376;2023-04-30T14:02:55;5.28;;;4.78;;
56373;SDS011;58212;47.034;7.376;2023-04-30T14:05:22;4.60;;;4.30;;
56373;SDS011;58212;47.034;7.376;2023-04-30T14:08:16;4.30;;;4.00;;
56373;SDS011;58212;47.034;7.376;2023-04-30T14:10:45;5.63;;;5.13;;
56373;SDS011;58212;47.034;7.376;2023-04-30T14:13:13;5.07;;;4.55;;
56373;SDS011;58212;47.034;7.376;2023-04-30T14:15:44;4.90;;;4.50;;
56373;SDS011;58212;47.034;7.376;2023-04-30T14:18:12;4.43;;;4.13;;
56373;SDS011;58212;47.034;7.376;2023-04-30T14:20:40;4.53;;;4.13;;
56373;SDS011;58212;47.034;7.376;2023-04-30T14:23:07;4.53;;;4.22;;
56373;SDS011;58212;47.034;7.376;2023-04-30T14:25:49;4.85;;;4.05;;
56373;SDS011;58212;47.034;7.376;2023-04-30T14:28:18;4.15;;;3.85;;
56373;SDS011;58212;47.034;7.376;2023-04-30T14:30:45;4.63;;;4.22;;
56373;SDS011;58212;47.034;7.376;2023-04-30T14:33:12;3.80;;;3.50;;
56373;SDS011;58212;47.034;7.376;2023-04-30T14:35:40;4.22;;;3.92;;
56373;SDS011;58212;47.034;7.376;2023-04-30T14:38:07;4.82;;;4.43;;
56373;SDS011;58212;47.034;7.376;2023-04-30T14:40:35;4.50;;;4.00;;
56373;SDS011;58212;47.034;7.376;2023-04-30T14:43:03;4.55;;;4.25;;
56373;SDS011;58212;47.034;7.376;2023-04-30T14:45:31;4.68;;;4.30;;
56373;SDS011;58212;47.034;7.376;2023-04-30T14:47:58;4.10;;;3.80;;
56373;SDS011;58212;47.034;7.376;2023-04-30T14:50:25;4.80;;;4.40;;
56373;SDS011;58212;47.034;7.376;2023-04-30T14:52:52;7.55;;;6.85;;
56373;SDS011;58212;47.034;7.376;2023-04-30T14:55:19;4.38;;;4.07;;
56373;SDS011;58212;47.034;7.376;2023-04-30T14:57:46;4.10;;;3.80;;
56373;SDS011;58212;47.034;7.376;2023-04-30T15:00:15;3.67;;;3.38;;
56373;SDS011;58212;47.034;7.376;2023-04-30T15:02:44;3.60;;;3.30;;
56373;SDS011;58212;47.034;7.376;2023-04-30T15:05:11;5.07;;;4.05;;
56373;SDS011;58212;47.034;7.376;2023-04-30T15:07:39;4.38;;;3.55;;
56373;SDS011;58212;47.034;7.376;2023-04-30T15:10:07;3.90;;;3.60;;